CheckWX is a tool to help pilots better visualize weather data.  It is not intended as a substitute for an official pre-flight weather briefing.

08:36:46 UTC

KAWM METAR
West Memphis Municipal Airport
West Memphis, Arkansas, USA
Current

33 mins ago

KAWM 240804Z AUTO 15010KT 4SM -RA BR BKN007 BKN022 OVC030 08/08 A2991 RMK AO2 P0000 T00830078
Observed
Feb-24 @ 08:04 UTC
Wind
  • 150° at 10 KTS
Visibility
4 SM
Flight Rules
IFR
Conditions
Light Rain, Mist
Cloud Levels
  • Broken at 700' AGL
  • Broken at 2,200' AGL
  • Overcast at 3,000' AGL
Temperature
C / 46°F
Dewpoint
C / 46°F
Humidity
100%
Altimeter
29.91" Hg
Pressure
1012.92 hPa
Current Rain
0.01"
Previous

44 mins ago

KAWM 240753Z AUTO 15013KT 5SM -RA BR SCT007 BKN022 OVC030 08/08 A2992 RMK AO2 SLP130 P0007 T00830078
Observed
Feb-24 @ 07:53 UTC
Wind
  • 150° at 13 KTS
Visibility
5 SM
Flight Rules
MVFR
Conditions
Light Rain, Mist
Cloud Levels
  • Scattered at 700' AGL
  • Broken at 2,200' AGL
  • Overcast at 3,000' AGL
Temperature
C / 46°F
Dewpoint
C / 46°F
Humidity
100%
Altimeter
29.92" Hg
Pressure
1013.22 hPa
Current Rain
0.07"
Previous

51 mins ago

KAWM 240746Z AUTO 15011KT 4SM -RA BR SCT007 BKN022 OVC030 08/08 A2992 RMK AO2 P0007 T00830078
Observed
Feb-24 @ 07:46 UTC
Wind
  • 150° at 11 KTS
Visibility
4 SM
Flight Rules
MVFR
Conditions
Light Rain, Mist
Cloud Levels
  • Scattered at 700' AGL
  • Broken at 2,200' AGL
  • Overcast at 3,000' AGL
Temperature
C / 46°F
Dewpoint
C / 46°F
Humidity
100%
Altimeter
29.92" Hg
Pressure
1013.22 hPa
Current Rain
0.07"